Time;durP1;ratioP1;P1;durP2;ratioP2;P2;SDS_P1;SDS_P2;PMS_P1;PMS_P2;Temp;Humidity;BMP_temperature;BMP_pressure;BME280_temperature;BME280_humidity;BME280_pressure;Samples;Min_cycle;Max_cycle;Signal;HPM_P1;HPM_P2
2021/11/30 00:02:22;;;;;;;27.25;13.55;;;;;;;;;;4859447;29;20030;-78
2021/11/30 00:04:48;;;;;;;23.70;12.00;;;;;;;;;;4859303;29;20041;-78
2021/11/30 00:07:14;;;;;;;30.02;15.30;;;;;;;;;;4859147;29;20675;-77
2021/11/30 00:12:17;;;;;;;25.60;13.82;;;;;;;;;;4846931;29;20087;-78
2021/11/30 00:14:44;;;;;;;28.73;14.85;;;;;;;;;;4849903;29;20070;-78
2021/11/30 00:17:11;;;;;;;35.70;18.00;;;;;;;;;;4843035;29;20079;-78
2021/11/30 00:19:37;;;;;;;24.75;12.50;;;;;;;;;;4856916;29;20037;-78
2021/11/30 00:22:05;;;;;;;16.60;9.18;;;;;;;;;;4852551;29;20040;-78
2021/11/30 00:24:31;;;;;;;22.40;12.90;;;;;;;;;;4846038;29;20038;-78
2021/11/30 00:26:58;;;;;;;15.25;8.80;;;;;;;;;;4857873;29;20030;-78
2021/11/30 00:29:24;;;;;;;16.13;7.70;;;;;;;;;;4850368;29;20057;-78
2021/11/30 00:31:50;;;;;;;14.38;5.93;;;;;;;;;;4851166;29;20045;-78
2021/11/30 00:34:16;;;;;;;12.90;5.70;;;;;;;;;;4845904;29;20793;-77
2021/11/30 00:36:42;;;;;;;12.52;5.53;;;;;;;;;;4861774;29;20086;-78
2021/11/30 00:39:08;;;;;;;10.88;4.50;;;;;;;;;;4860585;29;20085;-78
2021/11/30 00:41:34;;;;;;;13.05;6.88;;;;;;;;;;4861488;29;20025;-78
2021/11/30 00:44:01;;;;;;;11.70;5.68;;;;;;;;;;4861001;29;20167;-78
2021/11/30 00:46:34;;;;;;;10.73;5.82;;;;;;;;;;4859734;29;20040;-78
2021/11/30 00:49:02;;;;;;;12.85;5.97;;;;;;;;;;4859707;29;20030;-78
2021/11/30 00:51:28;;;;;;;12.27;6.10;;;;;;;;;;4842327;29;20040;-77
2021/11/30 00:53:54;;;;;;;11.60;6.32;;;;;;;;;;4840975;29;20045;-78
2021/11/30 00:56:20;;;;;;;13.88;6.53;;;;;;;;;;4839865;29;20044;-78
2021/11/30 00:58:47;;;;;;;11.25;5.65;;;;;;;;;;4840330;29;20030;-78
2021/11/30 01:01:14;;;;;;;11.18;6.32;;;;;;;;;;4853761;29;20044;-78
2021/11/30 01:03:40;;;;;;;11.45;5.60;;;;;;;;;;4859043;29;20373;-78
2021/11/30 01:06:07;;;;;;;12.40;6.63;;;;;;;;;;4848284;29;20124;-79
2021/11/30 01:08:33;;;;;;;10.70;6.05;;;;;;;;;;4839929;29;20030;-78
2021/11/30 01:11:00;;;;;;;13.20;5.85;;;;;;;;;;4839727;29;20107;-77
2021/11/30 01:13:29;;;;;;;9.70;5.35;;;;;;;;;;4839601;29;20126;-78
2021/11/30 01:15:55;;;;;;;9.40;5.00;;;;;;;;;;4844541;29;20555;-78
2021/11/30 01:18:21;;;;;;;12.60;6.63;;;;;;;;;;4857585;29;20064;-78
2021/11/30 01:20:47;;;;;;;12.70;5.90;;;;;;;;;;4856863;29;20033;-78
2021/11/30 01:23:13;;;;;;;11.20;6.45;;;;;;;;;;4857817;29;20791;-78
2021/11/30 01:25:39;;;;;;;15.48;8.05;;;;;;;;;;4856976;29;20033;-77
2021/11/30 01:28:06;;;;;;;15.40;7.28;;;;;;;;;;4840372;29;20042;-78
2021/11/30 01:30:32;;;;;;;13.50;7.32;;;;;;;;;;4839377;29;20066;-78
2021/11/30 01:32:58;;;;;;;12.70;6.75;;;;;;;;;;4837931;29;20046;-78
2021/11/30 01:35:24;;;;;;;14.90;6.38;;;;;;;;;;4837532;29;20319;-78
2021/11/30 01:37:50;;;;;;;12.88;6.35;;;;;;;;;;4854110;29;20719;-78
2021/11/30 01:40:18;;;;;;;11.73;5.97;;;;;;;;;;4857988;29;20041;-78
2021/11/30 01:42:46;;;;;;;11.93;5.20;;;;;;;;;;4828041;29;20069;-78
2021/11/30 01:45:21;;;;;;;12.27;5.30;;;;;;;;;;4839275;29;20069;-78
2021/11/30 01:50:20;;;;;;;11.55;5.88;;;;;;;;;;4857344;29;20049;-77
2021/11/30 01:52:49;;;;;;;11.68;5.60;;;;;;;;;;4844295;29;20048;-77
2021/11/30 01:55:15;;;;;;;12.27;6.15;;;;;;;;;;4838761;29;20034;-77
2021/11/30 01:57:41;;;;;;;11.00;4.90;;;;;;;;;;4850105;29;20396;-77
2021/11/30 02:00:08;;;;;;;8.55;4.35;;;;;;;;;;4857496;29;20041;-78
2021/11/30 02:02:34;;;;;;;7.88;4.00;;;;;;;;;;4831896;29;20045;-77
2021/11/30 02:05:00;;;;;;;8.05;3.92;;;;;;;;;;4839214;29;20041;-77
2021/11/30 02:07:26;;;;;;;8.07;4.10;;;;;;;;;;4838469;29;20038;-78
2021/11/30 02:09:52;;;;;;;9.32;4.30;;;;;;;;;;4850830;29;20082;-78
2021/11/30 02:12:18;;;;;;;9.18;4.28;;;;;;;;;;4856926;29;20042;-77
2021/11/30 02:14:46;;;;;;;8.13;4.18;;;;;;;;;;4856841;29;20045;-78
2021/11/30 02:17:13;;;;;;;8.13;4.13;;;;;;;;;;4857645;29;20040;-78
2021/11/30 02:19:48;;;;;;;10.75;4.07;;;;;;;;;;4832514;29;20594;-78
2021/11/30 02:22:15;;;;;;;9.18;3.72;;;;;;;;;;4839199;29;20117;-78
2021/11/30 02:24:42;;;;;;;11.15;5.07;;;;;;;;;;4845258;29;20042;-77
2021/11/30 02:27:08;;;;;;;5.72;2.90;;;;;;;;;;4857705;29;20041;-78
2021/11/30 02:29:34;;;;;;;5.78;2.88;;;;;;;;;;4856445;29;20538;-77
2021/11/30 02:32:00;;;;;;;8.32;3.75;;;;;;;;;;4860914;29;20065;-78
2021/11/30 02:34:26;;;;;;;9.07;4.20;;;;;;;;;;4858496;29;20072;-78
2021/11/30 02:36:54;;;;;;;6.60;3.25;;;;;;;;;;4842373;29;20034;-77
2021/11/30 02:39:24;;;;;;;7.97;3.35;;;;;;;;;;4842227;29;20418;-78
2021/11/30 02:41:51;;;;;;;8.18;3.22;;;;;;;;;;4850347;29;20112;-77
2021/11/30 02:44:18;;;;;;;7.15;3.22;;;;;;;;;;4860281;29;20041;-78
2021/11/30 02:46:49;;;;;;;6.90;2.80;;;;;;;;;;4843560;29;20037;-78
2021/11/30 02:49:16;;;;;;;7.97;3.40;;;;;;;;;;4860618;29;20045;-78
2021/11/30 02:51:46;;;;;;;7.07;3.42;;;;;;;;;;4860155;29;20040;-78
2021/11/30 02:54:14;;;;;;;10.23;4.82;;;;;;;;;;4860550;29;20124;-78
2021/11/30 02:56:41;;;;;;;8.82;4.75;;;;;;;;;;4843611;29;20037;-78
2021/11/30 02:59:07;;;;;;;9.88;6.00;;;;;;;;;;4860585;29;20060;-78
2021/11/30 03:01:33;;;;;;;10.60;5.90;;;;;;;;;;4858202;29;20452;-78
2021/11/30 03:03:59;;;;;;;12.30;6.57;;;;;;;;;;4853761;29;20093;-78
2021/11/30 03:06:25;;;;;;;12.38;5.78;;;;;;;;;;4843184;29;20053;-78
2021/11/30 03:08:51;;;;;;;9.63;4.45;;;;;;;;;;4860019;29;20077;-78
2021/11/30 03:11:18;;;;;;;8.20;3.88;;;;;;;;;;4843188;29;20567;-77
2021/11/30 03:13:44;;;;;;;7.95;3.70;;;;;;;;;;4844440;29;20042;-77
2021/11/30 03:16:10;;;;;;;8.30;3.22;;;;;;;;;;4854642;29;20069;-78
2021/11/30 03:18:36;;;;;;;7.65;4.00;;;;;;;;;;4847616;29;20076;-78
2021/11/30 03:21:05;;;;;;;7.97;3.35;;;;;;;;;;4849360;29;20136;-78
2021/11/30 03:23:31;;;;;;;7.80;3.63;;;;;;;;;;4852281;29;20041;-78
2021/11/30 03:25:58;;;;;;;9.13;4.65;;;;;;;;;;4848542;29;20034;-78
2021/11/30 03:28:23;;;;;;;9.27;4.65;;;;;;;;;;4847633;29;20116;-78
2021/11/30 03:30:57;;;;;;;8.80;4.53;;;;;;;;;;4850659;29;20144;-78
2021/11/30 03:36:08;;;;;;;9.70;4.90;;;;;;;;;;4860467;29;20044;-78
2021/11/30 03:38:34;;;;;;;8.25;4.10;;;;;;;;;;4859531;29;20039;-78
2021/11/30 03:41:00;;;;;;;7.35;3.72;;;;;;;;;;4843864;29;20034;-78
2021/11/30 03:43:26;;;;;;;8.23;3.70;;;;;;;;;;4858437;29;20061;-78
2021/11/30 03:45:52;;;;;;;7.10;3.42;;;;;;;;;;4859307;29;20468;-77
2021/11/30 03:48:18;;;;;;;10.52;4.75;;;;;;;;;;4841173;29;20042;-78
2021/11/30 03:50:44;;;;;;;10.40;4.30;;;;;;;;;;4848316;29;20053;-78
2021/11/30 03:53:10;;;;;;;8.75;3.63;;;;;;;;;;4840687;29;20045;-78
2021/11/30 03:55:36;;;;;;;6.88;3.67;;;;;;;;;;4841093;29;20038;-78
2021/11/30 03:58:02;;;;;;;11.27;4.60;;;;;;;;;;4854443;29;20029;-78
2021/11/30 04:00:28;;;;;;;11.18;5.28;;;;;;;;;;4859716;29;20044;-78
2021/11/30 04:02:55;;;;;;;10.02;4.55;;;;;;;;;;4842567;29;20034;-78
2021/11/30 04:05:21;;;;;;;13.88;5.53;;;;;;;;;;4859503;29;20041;-78
2021/11/30 04:07:47;;;;;;;10.80;4.07;;;;;;;;;;4859280;29;20041;-78
2021/11/30 04:10:13;;;;;;;8.98;3.70;;;;;;;;;;4843007;29;20044;-78
2021/11/30 04:12:39;;;;;;;11.55;4.70;;;;;;;;;;4859011;29;20075;-79
2021/11/30 04:15:05;;;;;;;7.25;3.00;;;;;;;;;;4859384;29;20052;-78
2021/11/30 04:17:32;;;;;;;10.70;5.70;;;;;;;;;;4842129;29;20086;-79
2021/11/30 04:19:58;;;;;;;7.00;3.92;;;;;;;;;;4859167;29;20033;-79
2021/11/30 04:22:24;;;;;;;7.13;3.63;;;;;;;;;;4857648;29;20061;-78
2021/11/30 04:24:51;;;;;;;8.48;3.40;;;;;;;;;;4840615;29;20038;-78
2021/11/30 04:27:17;;;;;;;8.27;4.38;;;;;;;;;;4840876;29;20038;-78
2021/11/30 04:29:43;;;;;;;9.48;4.97;;;;;;;;;;4840265;29;20089;-78
2021/11/30 04:32:10;;;;;;;8.50;4.78;;;;;;;;;;4840548;29;20040;-78
2021/11/30 04:34:36;;;;;;;8.82;4.43;;;;;;;;;;4840343;29;20806;-79
2021/11/30 04:37:02;;;;;;;12.65;4.88;;;;;;;;;;4839384;29;20038;-78
2021/11/30 04:39:28;;;;;;;9.65;4.70;;;;;;;;;;4852983;29;20066;-79
2021/11/30 04:41:54;;;;;;;8.93;4.57;;;;;;;;;;4842703;29;20041;-78
2021/11/30 04:44:21;;;;;;;8.40;4.20;;;;;;;;;;4858457;29;20052;-78
2021/11/30 04:46:55;;;;;;;8.23;4.38;;;;;;;;;;4853440;29;20069;-78
2021/11/30 04:51:56;;;;;;;9.02;4.32;;;;;;;;;;4858471;29;20051;-78
2021/11/30 04:54:23;;;;;;;11.55;5.38;;;;;;;;;;4857183;29;20068;-78
2021/11/30 04:56:49;;;;;;;9.02;4.45;;;;;;;;;;4858736;29;20058;-78
2021/11/30 04:59:17;;;;;;;9.70;4.35;;;;;;;;;;4857748;29;20092;-78
2021/11/30 05:01:43;;;;;;;10.23;4.78;;;;;;;;;;4858268;29;20086;-78
2021/11/30 05:04:09;;;;;;;13.02;5.15;;;;;;;;;;4858608;29;20030;-79
2021/11/30 05:06:37;;;;;;;11.32;4.90;;;;;;;;;;4842178;29;20101;-78
2021/11/30 05:09:04;;;;;;;10.52;5.22;;;;;;;;;;4840277;29;20094;-78
2021/11/30 05:11:30;;;;;;;15.95;6.90;;;;;;;;;;4839647;29;20081;-78
2021/11/30 05:13:56;;;;;;;11.60;5.65;;;;;;;;;;4854768;29;20042;-78
2021/11/30 05:16:22;;;;;;;11.15;4.93;;;;;;;;;;4858080;29;20425;-78
2021/11/30 05:18:48;;;;;;;10.75;4.55;;;;;;;;;;4857695;29;20128;-79
2021/11/30 05:21:14;;;;;;;8.88;4.10;;;;;;;;;;4852015;29;20529;-78
2021/11/30 05:23:43;;;;;;;10.98;5.22;;;;;;;;;;4841183;29;20072;-78
2021/11/30 05:26:10;;;;;;;9.05;4.30;;;;;;;;;;4841639;29;20062;-78
2021/11/30 05:28:38;;;;;;;10.90;4.53;;;;;;;;;;4857641;29;20037;-78
2021/11/30 05:31:04;;;;;;;10.18;4.63;;;;;;;;;;4858176;29;20057;-78
2021/11/30 05:33:31;;;;;;;9.25;5.47;;;;;;;;;;4857610;29;20046;-78
2021/11/30 05:35:57;;;;;;;10.82;3.85;;;;;;;;;;4841170;29;20033;-78
2021/11/30 05:38:23;;;;;;;10.07;4.40;;;;;;;;;;4841048;29;20042;-78
2021/11/30 05:40:50;;;;;;;9.43;4.53;;;;;;;;;;4858284;29;20081;-78
2021/11/30 05:43:16;;;;;;;9.65;4.32;;;;;;;;;;4857288;29;20037;-78
2021/11/30 05:45:42;;;;;;;9.20;3.22;;;;;;;;;;4857658;29;20642;-78
2021/11/30 05:48:08;;;;;;;6.45;3.00;;;;;;;;;;4856655;29;20029;-78
2021/11/30 05:50:34;;;;;;;10.30;3.72;;;;;;;;;;4841175;29;20045;-78
2021/11/30 05:53:00;;;;;;;8.70;3.97;;;;;;;;;;4857866;29;20037;-78
2021/11/30 05:55:27;;;;;;;7.82;3.35;;;;;;;;;;4844252;29;20030;-78
2021/11/30 05:57:53;;;;;;;9.00;4.60;;;;;;;;;;4857754;29;20045;-78
2021/11/30 06:00:21;;;;;;;9.20;4.25;;;;;;;;;;4857387;29;20044;-78
2021/11/30 06:03:06;;;;;;;8.57;4.50;;;;;;;;;;4857995;29;20392;-78
2021/11/30 06:05:32;;;;;;;11.68;4.63;;;;;;;;;;4856338;29;20034;-79
2021/11/30 06:08:00;;;;;;;10.18;4.35;;;;;;;;;;4833485;29;20026;-79
2021/11/30 06:10:27;;;;;;;9.95;4.40;;;;;;;;;;4840020;29;20141;-78
2021/11/30 06:12:53;;;;;;;11.73;5.25;;;;;;;;;;4858527;29;20060;-79
2021/11/30 06:15:19;;;;;;;14.32;6.10;;;;;;;;;;4852516;29;20120;-78
2021/11/30 06:17:46;;;;;;;20.38;9.43;;;;;;;;;;4854337;29;20052;-79
2021/11/30 06:20:13;;;;;;;27.15;11.98;;;;;;;;;;4837763;29;20400;-79
2021/11/30 06:22:39;;;;;;;22.92;10.68;;;;;;;;;;4852133;29;20033;-79
2021/11/30 06:25:06;;;;;;;29.50;12.57;;;;;;;;;;4849089;29;20482;-79
2021/11/30 06:27:32;;;;;;;17.55;8.25;;;;;;;;;;4840031;29;20038;-78
2021/11/30 06:29:58;;;;;;;17.38;6.97;;;;;;;;;;4848524;29;20412;-78
2021/11/30 06:32:25;;;;;;;14.68;7.22;;;;;;;;;;4852466;29;20041;-78
2021/11/30 06:34:51;;;;;;;12.68;6.35;;;;;;;;;;4850597;29;20691;-78
2021/11/30 06:37:17;;;;;;;16.83;7.25;;;;;;;;;;4842948;29;20034;-79
2021/11/30 06:39:43;;;;;;;18.90;7.18;;;;;;;;;;4853724;29;20065;-78
2021/11/30 06:42:09;;;;;;;13.65;7.18;;;;;;;;;;4838227;29;20038;-79
2021/11/30 06:44:35;;;;;;;8.63;4.10;;;;;;;;;;4856119;29;20809;-79
2021/11/30 06:47:02;;;;;;;13.00;5.40;;;;;;;;;;4838113;29;20041;-78
2021/11/30 06:49:28;;;;;;;26.63;11.43;;;;;;;;;;4843650;29;20041;-78
2021/11/30 06:51:54;;;;;;;20.27;9.43;;;;;;;;;;4855433;29;20051;-79
2021/11/30 06:54:21;;;;;;;19.45;7.97;;;;;;;;;;4856817;29;20116;-79
2021/11/30 06:56:47;;;;;;;13.48;6.55;;;;;;;;;;4854444;29;20137;-79
2021/11/30 06:59:13;;;;;;;11.25;4.78;;;;;;;;;;4845304;29;20145;-78
2021/11/30 07:01:39;;;;;;;9.63;4.43;;;;;;;;;;4855488;29;20141;-78
2021/11/30 07:04:05;;;;;;;12.10;4.13;;;;;;;;;;4837451;29;20038;-78
2021/11/30 07:07:21;;;;;;;9.65;4.55;;;;;;;;;;4838330;29;20038;-79
2021/11/30 07:09:33;;;;;;;14.70;6.57;;;;;;;;;;4835485;29;20053;-79
2021/11/30 07:14:31;;;;;;;;;;;;;;;;;;4856770;29;20765;-79
2021/11/30 07:16:58;;;;;;;14.82;8.15;;;;;;;;;;4844668;29;19923;-79
2021/11/30 07:19:24;;;;;;;14.52;7.28;;;;;;;;;;4853982;29;20532;-79
2021/11/30 07:21:50;;;;;;;11.00;4.90;;;;;;;;;;4857539;29;20061;-78
2021/11/30 07:24:16;;;;;;;13.30;4.30;;;;;;;;;;4856327;29;20064;-79
2021/11/30 07:26:42;;;;;;;10.73;3.33;;;;;;;;;;4843336;29;20052;-79
2021/11/30 07:29:08;;;;;;;7.75;3.22;;;;;;;;;;4859420;29;20535;-78
2021/11/30 07:31:34;;;;;;;8.52;3.45;;;;;;;;;;4860278;29;20061;-78
2021/11/30 07:34:00;;;;;;;8.25;3.80;;;;;;;;;;4859468;29;20056;-79
2021/11/30 07:36:27;;;;;;;11.32;6.03;;;;;;;;;;4841093;29;20037;-79
2021/11/30 07:38:53;;;;;;;16.15;7.25;;;;;;;;;;4859508;29;20121;-78
2021/11/30 07:41:20;;;;;;;13.77;6.90;;;;;;;;;;4859838;29;20108;-79
2021/11/30 07:43:46;;;;;;;16.35;7.70;;;;;;;;;;4858421;29;20037;-79
2021/11/30 07:46:12;;;;;;;12.32;6.75;;;;;;;;;;4842295;29;20041;-78
2021/11/30 07:48:38;;;;;;;13.35;6.75;;;;;;;;;;4849652;29;20408;-78
2021/11/30 07:51:05;;;;;;;10.57;5.47;;;;;;;;;;4871670;29;20041;-79
2021/11/30 07:53:31;;;;;;;7.78;3.67;;;;;;;;;;4874417;29;20464;-78
2021/11/30 07:55:57;;;;;;;8.48;3.53;;;;;;;;;;4846551;29;20034;-79
2021/11/30 07:58:23;;;;;;;11.73;3.50;;;;;;;;;;4865809;29;20041;-79
2021/11/30 08:00:50;;;;;;;8.05;3.30;;;;;;;;;;4868094;29;20098;-78
2021/11/30 08:03:17;;;;;;;9.30;3.65;;;;;;;;;;4852498;29;20808;-79
2021/11/30 08:05:43;;;;;;;9.30;4.72;;;;;;;;;;4850472;29;20478;-79
2021/11/30 08:08:09;;;;;;;18.88;7.88;;;;;;;;;;4857377;29;20040;-79
2021/11/30 08:10:35;;;;;;;18.25;8.07;;;;;;;;;;4849020;29;20041;-79
2021/11/30 08:13:02;;;;;;;17.25;9.20;;;;;;;;;;4864322;29;20388;-79
2021/11/30 08:15:28;;;;;;;20.23;10.43;;;;;;;;;;4869106;29;20030;-79
2021/11/30 08:17:54;;;;;;;21.08;9.38;;;;;;;;;;4839017;29;20044;-79
2021/11/30 08:20:20;;;;;;;17.63;8.63;;;;;;;;;;4854856;29;20033;-79
2021/11/30 08:22:46;;;;;;;19.23;9.07;;;;;;;;;;4869773;29;20116;-79
2021/11/30 08:25:13;;;;;;;17.20;8.10;;;;;;;;;;4840551;29;20038;-79
2021/11/30 08:27:39;;;;;;;17.52;7.60;;;;;;;;;;4853665;29;20476;-79
2021/11/30 08:30:06;;;;;;;14.25;6.10;;;;;;;;;;4858342;29;20118;-78
2021/11/30 08:32:33;;;;;;;12.90;5.85;;;;;;;;;;4846447;29;20801;-79
2021/11/30 08:34:59;;;;;;;12.20;6.18;;;;;;;;;;4855622;29;20136;-79
2021/11/30 08:37:25;;;;;;;13.48;7.10;;;;;;;;;;4840354;29;20072;-79
2021/11/30 08:39:52;;;;;;;13.52;6.88;;;;;;;;;;4854083;29;20156;-79
2021/11/30 08:42:19;;;;;;;14.18;7.45;;;;;;;;;;4856742;29;20434;-79
2021/11/30 08:44:46;;;;;;;17.10;7.63;;;;;;;;;;4849730;29;20048;-79
2021/11/30 08:47:13;;;;;;;20.92;9.57;;;;;;;;;;4850704;29;20046;-79
2021/11/30 08:49:39;;;;;;;20.38;11.20;;;;;;;;;;4857855;29;20396;-79
2021/11/30 08:52:07;;;;;;;21.10;10.13;;;;;;;;;;4856199;29;20046;-78
2021/11/30 08:54:33;;;;;;;21.27;9.07;;;;;;;;;;4846105;29;20042;-79
2021/11/30 08:57:00;;;;;;;15.43;6.93;;;;;;;;;;4835630;29;20518;-79
2021/11/30 08:59:26;;;;;;;15.73;7.88;;;;;;;;;;4842121;29;20030;-79
2021/11/30 09:01:53;;;;;;;20.52;9.32;;;;;;;;;;4841376;29;20041;-79
2021/11/30 09:04:19;;;;;;;16.88;7.70;;;;;;;;;;4843345;29;20064;-79
2021/11/30 09:06:45;;;;;;;15.75;7.43;;;;;;;;;;4840259;29;20042;-79
2021/11/30 09:09:11;;;;;;;18.27;8.95;;;;;;;;;;4838734;29;20038;-79
2021/11/30 09:11:38;;;;;;;22.00;10.00;;;;;;;;;;4856484;29;20456;-79
2021/11/30 09:14:05;;;;;;;19.83;8.65;;;;;;;;;;4841589;29;20064;-79
2021/11/30 09:16:31;;;;;;;16.10;7.88;;;;;;;;;;4857862;29;20044;-79
2021/11/30 09:18:57;;;;;;;13.65;7.93;;;;;;;;;;4858057;29;20522;-79
2021/11/30 09:21:24;;;;;;;18.92;9.98;;;;;;;;;;4857574;29;20109;-79
2021/11/30 09:23:50;;;;;;;20.55;9.30;;;;;;;;;;4845810;29;20071;-79
2021/11/30 09:26:17;;;;;;;14.90;6.85;;;;;;;;;;4839690;29;20070;-79
2021/11/30 09:28:43;;;;;;;16.77;7.57;;;;;;;;;;4858382;29;20082;-79
2021/11/30 09:31:10;;;;;;;15.20;6.80;;;;;;;;;;4852053;29;20061;-79
2021/11/30 09:33:39;;;;;;;13.80;5.88;;;;;;;;;;4841297;29;20080;-79
2021/11/30 09:36:05;;;;;;;14.23;6.63;;;;;;;;;;4846382;29;20141;-79
2021/11/30 09:38:31;;;;;;;13.95;6.63;;;;;;;;;;4853818;29;20051;-78
2021/11/30 09:40:58;;;;;;;13.73;6.70;;;;;;;;;;4857316;29;20034;-79
2021/11/30 09:43:26;;;;;;;12.00;5.82;;;;;;;;;;4855896;29;20046;-78
2021/11/30 09:45:55;;;;;;;15.63;6.80;;;;;;;;;;4851422;29;20608;-78
2021/11/30 09:48:21;;;;;;;17.30;7.35;;;;;;;;;;4860157;29;20049;-79
2021/11/30 09:50:47;;;;;;;14.65;6.75;;;;;;;;;;4868138;29;20032;-78
2021/11/30 09:53:13;;;;;;;15.10;6.07;;;;;;;;;;4868172;29;20399;-79
2021/11/30 09:55:41;;;;;;;13.57;6.63;;;;;;;;;;4875879;29;20032;-78
2021/11/30 09:58:07;;;;;;;20.25;5.25;;;;;;;;;;4859439;29;20433;-78
2021/11/30 10:00:34;;;;;;;11.27;4.55;;;;;;;;;;4854457;29;20034;-78
2021/11/30 10:03:00;;;;;;;9.30;4.25;;;;;;;;;;4848285;29;20033;-78
2021/11/30 10:05:26;;;;;;;21.73;8.52;;;;;;;;;;4857432;29;20033;-79
2021/11/30 10:07:54;;;;;;;22.88;9.02;;;;;;;;;;4858413;29;20044;-78
2021/11/30 10:10:22;;;;;;;11.60;5.97;;;;;;;;;;4839062;29;20038;-78
2021/11/30 10:13:08;;;;;;;16.33;7.07;;;;;;;;;;4839179;29;20080;-78
2021/11/30 10:15:46;;;;;;;14.07;5.97;;;;;;;;;;4847799;29;20141;-78
2021/11/30 10:18:15;;;;;;;12.80;5.45;;;;;;;;;;4840460;29;20041;-78
2021/11/30 10:20:41;;;;;;;10.23;4.40;;;;;;;;;;4858117;29;20029;-78
2021/11/30 10:23:07;;;;;;;15.38;7.15;;;;;;;;;;4858419;29;20065;-78
2021/11/30 10:25:41;;;;;;;15.13;6.72;;;;;;;;;;4854327;29;20816;-79
2021/11/30 10:28:17;;;;;;;14.35;7.15;;;;;;;;;;4838772;29;20478;-78
2021/11/30 10:30:44;;;;;;;17.45;7.25;;;;;;;;;;4855636;29;20182;-78
2021/11/30 10:33:13;;;;;;;15.70;6.93;;;;;;;;;;4857101;29;20041;-78
2021/11/30 10:35:39;;;;;;;10.27;5.75;;;;;;;;;;4856408;29;20037;-78
2021/11/30 10:38:05;;;;;;;10.77;5.88;;;;;;;;;;4840801;29;20037;-78
2021/11/30 10:40:34;;;;;;;13.13;6.40;;;;;;;;;;4844096;29;20026;-78
2021/11/30 10:43:02;;;;;;;12.10;6.25;;;;;;;;;;4846353;29;20358;-78
2021/11/30 10:45:45;;;;;;;14.63;6.70;;;;;;;;;;4843997;29;20081;-77
2021/11/30 10:48:19;;;;;;;12.10;6.10;;;;;;;;;;4854596;29;20083;-78
2021/11/30 10:50:46;;;;;;;17.13;7.13;;;;;;;;;;4852724;29;20073;-78
2021/11/30 10:53:25;;;;;;;12.52;5.82;;;;;;;;;;4842587;29;20699;-78
2021/11/30 10:55:55;;;;;;;12.48;5.63;;;;;;;;;;4855557;29;20121;-78
2021/11/30 10:58:23;;;;;;;13.43;5.45;;;;;;;;;;4848546;29;20037;-78
2021/11/30 11:00:49;;;;;;;9.50;4.68;;;;;;;;;;4853499;29;20113;-78
2021/11/30 11:03:18;;;;;;;10.15;4.82;;;;;;;;;;4858191;29;20057;-77
2021/11/30 11:05:46;;;;;;;14.90;4.63;;;;;;;;;;4853732;29;20041;-78
2021/11/30 11:08:14;;;;;;;13.52;4.72;;;;;;;;;;4860948;29;20171;-78
2021/11/30 11:11:00;;;;;;;10.48;5.05;;;;;;;;;;4844044;29;20066;-78
2021/11/30 11:13:28;;;;;;;15.25;5.40;;;;;;;;;;4854484;29;20042;-78
2021/11/30 11:15:58;;;;;;;12.27;5.78;;;;;;;;;;4860163;29;20388;-79
2021/11/30 11:18:26;;;;;;;10.80;5.30;;;;;;;;;;4849407;29;20041;-78
2021/11/30 11:21:12;;;;;;;14.85;5.32;;;;;;;;;;4851660;29;20029;-79
2021/11/30 11:23:42;;;;;;;13.52;5.38;;;;;;;;;;4852916;29;20089;-78
2021/11/30 11:26:15;;;;;;;11.88;5.85;;;;;;;;;;4854801;29;20062;-78
2021/11/30 11:28:42;;;;;;;14.23;5.57;;;;;;;;;;4854188;29;20052;-79
2021/11/30 11:31:08;;;;;;;12.82;5.20;;;;;;;;;;4849430;29;20065;-78
2021/11/30 11:33:35;;;;;;;14.32;4.63;;;;;;;;;;4852266;29;20124;-78
2021/11/30 11:36:01;;;;;;;8.02;2.90;;;;;;;;;;4844682;29;20069;-78
2021/11/30 11:38:28;;;;;;;7.78;3.17;;;;;;;;;;4855210;29;20065;-78
2021/11/30 11:40:54;;;;;;;11.65;4.32;;;;;;;;;;4856104;29;20026;-78
2021/11/30 11:43:20;;;;;;;10.68;4.55;;;;;;;;;;4842636;29;20045;-78
2021/11/30 11:45:46;;;;;;;14.52;5.65;;;;;;;;;;4843177;29;20069;-79
2021/11/30 11:48:12;;;;;;;13.27;6.38;;;;;;;;;;4841656;29;20464;-78
2021/11/30 11:50:48;;;;;;;14.63;6.80;;;;;;;;;;4842881;29;20369;-78
2021/11/30 11:53:22;;;;;;;19.80;11.00;;;;;;;;;;4859110;29;20052;-78
2021/11/30 11:56:07;;;;;;;19.35;10.75;;;;;;;;;;4848763;29;20037;-78
2021/11/30 11:58:34;;;;;;;17.60;8.70;;;;;;;;;;4856843;29;20113;-78
2021/11/30 12:01:00;;;;;;;14.90;7.50;;;;;;;;;;4854579;29;20034;-78
2021/11/30 12:03:46;;;;;;;12.30;6.15;;;;;;;;;;4851923;29;20507;-78
2021/11/30 12:06:25;;;;;;;14.27;6.10;;;;;;;;;;4846048;29;20073;-78
2021/11/30 12:09:10;;;;;;;10.48;3.45;;;;;;;;;;4859563;29;20038;-78
2021/11/30 12:11:40;;;;;;;14.10;4.03;;;;;;;;;;4843151;29;20042;-78
2021/11/30 12:14:14;;;;;;;15.63;7.70;;;;;;;;;;4849152;29;20054;-78
2021/11/30 12:16:58;;;;;;;14.20;7.43;;;;;;;;;;4855557;29;20037;-78
2021/11/30 12:19:26;;;;;;;15.40;6.93;;;;;;;;;;4854172;29;20046;-78
2021/11/30 12:21:52;;;;;;;18.48;6.88;;;;;;;;;;4855437;29;20059;-78
2021/11/30 12:24:42;;;;;;;15.43;8.65;;;;;;;;;;4846961;29;20044;-78
2021/11/30 12:27:14;;;;;;;18.55;9.63;;;;;;;;;;4857760;29;20041;-78
2021/11/30 12:29:40;;;;;;;23.95;8.00;;;;;;;;;;4860452;29;20103;-78
2021/11/30 12:32:15;;;;;;;15.63;8.68;;;;;;;;;;4861724;29;20045;-78
2021/11/30 12:34:52;;;;;;;15.68;6.95;;;;;;;;;;4855571;29;20476;-78
2021/11/30 12:37:38;;;;;;;16.52;7.35;;;;;;;;;;4862613;29;20506;-78
2021/11/30 12:40:08;;;;;;;11.73;5.65;;;;;;;;;;4868099;29;20480;-78
2021/11/30 12:42:40;;;;;;;15.90;5.65;;;;;;;;;;4858824;29;20361;-79
2021/11/30 12:45:07;;;;;;;9.88;4.63;;;;;;;;;;4870173;29;20088;-78
2021/11/30 12:47:33;;;;;;;12.82;5.15;;;;;;;;;;4853298;29;20081;-78
2021/11/30 12:49:59;;;;;;;10.52;4.50;;;;;;;;;;4865058;29;20047;-78
2021/11/30 12:52:26;;;;;;;9.57;4.45;;;;;;;;;;4838764;29;20084;-78
2021/11/30 12:54:54;;;;;;;14.13;4.03;;;;;;;;;;4840281;29;20060;-79
2021/11/30 12:57:31;;;;;;;21.55;7.03;;;;;;;;;;4856400;29;20468;-79
2021/11/30 13:00:00;;;;;;;15.82;5.88;;;;;;;;;;4860759;29;20081;-79
2021/11/30 13:02:26;;;;;;;16.67;7.70;;;;;;;;;;4850996;29;20037;-79
2021/11/30 13:04:57;;;;;;;16.38;7.78;;;;;;;;;;4858717;29;20038;-79
2021/11/30 13:07:26;;;;;;;26.58;13.88;;;;;;;;;;4855595;29;20034;-79
2021/11/30 13:09:54;;;;;;;26.42;11.85;;;;;;;;;;4852181;29;20048;-79
2021/11/30 13:12:22;;;;;;;20.00;7.72;;;;;;;;;;4852696;29;20069;-78
2021/11/30 13:14:49;;;;;;;13.13;6.10;;;;;;;;;;4857662;29;20076;-79
2021/11/30 13:17:15;;;;;;;15.38;7.07;;;;;;;;;;4857946;29;20037;-78
2021/11/30 13:19:43;;;;;;;13.73;7.50;;;;;;;;;;4843003;29;20040;-79
2021/11/30 13:22:10;;;;;;;15.38;7.05;;;;;;;;;;4841619;29;20029;-79
2021/11/30 13:24:41;;;;;;;14.55;7.75;;;;;;;;;;4859427;29;20041;-79
2021/11/30 13:27:13;;;;;;;17.73;7.93;;;;;;;;;;4852541;29;20124;-78
2021/11/30 13:29:51;;;;;;;14.38;8.18;;;;;;;;;;4847893;29;20064;-78
2021/11/30 13:32:21;;;;;;;16.23;7.85;;;;;;;;;;4838696;29;20048;-79
2021/11/30 13:35:04;;;;;;;18.23;7.80;;;;;;;;;;4849018;29;20420;-79
2021/11/30 13:37:30;;;;;;;21.80;8.57;;;;;;;;;;4848757;29;20030;-78
2021/11/30 13:39:56;;;;;;;23.55;9.98;;;;;;;;;;4857972;29;20037;-79
2021/11/30 13:42:22;;;;;;;17.67;7.97;;;;;;;;;;4858724;29;20665;-78
2021/11/30 13:44:52;;;;;;;15.63;7.57;;;;;;;;;;4853570;29;20081;-79
2021/11/30 13:47:18;;;;;;;16.52;8.32;;;;;;;;;;4858094;29;20033;-79
2021/11/30 13:49:46;;;;;;;14.65;7.60;;;;;;;;;;4863860;29;20137;-78
2021/11/30 13:52:22;;;;;;;12.43;6.18;;;;;;;;;;4840122;29;20047;-78
2021/11/30 13:54:57;;;;;;;16.20;6.72;;;;;;;;;;4868216;29;20037;-78
2021/11/30 13:57:26;;;;;;;14.95;6.55;;;;;;;;;;4854225;29;20044;-79
2021/11/30 13:59:55;;;;;;;22.20;9.88;;;;;;;;;;4865138;29;20636;-79
2021/11/30 14:02:32;;;;;;;15.20;6.60;;;;;;;;;;4843429;29;20065;-78
2021/11/30 14:05:01;;;;;;;13.25;7.22;;;;;;;;;;4855189;29;20044;-78
2021/11/30 14:07:30;;;;;;;17.42;7.25;;;;;;;;;;4867094;29;20072;-78
2021/11/30 14:09:59;;;;;;;17.83;8.40;;;;;;;;;;4868024;29;20056;-78
2021/11/30 14:12:26;;;;;;;16.60;9.00;;;;;;;;;;4851552;29;20076;-78
2021/11/30 14:14:53;;;;;;;17.85;8.00;;;;;;;;;;4840309;29;20512;-79
2021/11/30 14:17:20;;;;;;;17.05;8.35;;;;;;;;;;4847943;29;20030;-78
2021/11/30 14:19:47;;;;;;;17.25;8.23;;;;;;;;;;4859838;29;20068;-78
2021/11/30 14:22:14;;;;;;;40.95;18.25;;;;;;;;;;4853249;29;20029;-78
2021/11/30 14:24:55;;;;;;;17.10;6.53;;;;;;;;;;4868711;29;20504;-78
2021/11/30 14:27:22;;;;;;;14.45;5.85;;;;;;;;;;4863491;29;20029;-78
2021/11/30 14:29:49;;;;;;;16.08;6.43;;;;;;;;;;4865949;29;20122;-78
2021/11/30 14:32:25;;;;;;;15.73;5.70;;;;;;;;;;4843185;29;20514;-78
2021/11/30 14:34:53;;;;;;;13.90;6.30;;;;;;;;;;4857832;29;20080;-78
2021/11/30 14:37:22;;;;;;;21.80;10.70;;;;;;;;;;4861082;29;20037;-79
2021/11/30 14:39:49;;;;;;;20.85;12.07;;;;;;;;;;4875267;29;20041;-78
2021/11/30 14:42:32;;;;;;;18.80;11.93;;;;;;;;;;4849682;29;20029;-79
2021/11/30 14:45:31;;;;;;;18.25;10.43;;;;;;;;;;4856472;29;20500;-78
2021/11/30 14:48:08;;;;;;;17.25;9.32;;;;;;;;;;4859245;29;20042;-79
2021/11/30 14:50:37;;;;;;;16.50;9.43;;;;;;;;;;4860109;29;20044;-79
2021/11/30 14:53:04;;;;;;;19.33;9.13;;;;;;;;;;4849172;29;20030;-78